sensor_id;sensor_type;location;lat;lon;timestamp;temperature;humidity
49579;DHT22;35483;50.828;3.228;2023-05-10T00:01:12;14.70;99.90
49579;DHT22;35483;50.828;3.228;2023-05-10T00:03:39;14.80;99.90
49579;DHT22;35483;50.828;3.228;2023-05-10T00:06:05;14.80;99.90
49579;DHT22;35483;50.828;3.228;2023-05-10T00:08:31;14.80;99.90
49579;DHT22;35483;50.828;3.228;2023-05-10T00:10:57;14.80;99.90
49579;DHT22;35483;50.828;3.228;2023-05-10T00:13:22;14.80;99.90
49579;DHT22;35483;50.828;3.228;2023-05-10T00:15:50;14.80;99.90
49579;DHT22;35483;50.828;3.228;2023-05-10T00:18:17;14.80;99.90
49579;DHT22;35483;50.828;3.228;2023-05-10T00:20:43;14.80;99.90
49579;DHT22;35483;50.828;3.228;2023-05-10T00:23:10;14.70;99.90
49579;DHT22;35483;50.828;3.228;2023-05-10T00:25:36;14.80;99.90
49579;DHT22;35483;50.828;3.228;2023-05-10T00:28:03;14.80;99.90
49579;DHT22;35483;50.828;3.228;2023-05-10T00:30:29;14.80;99.90
49579;DHT22;35483;50.828;3.228;2023-05-10T00:32:55;14.80;99.90
49579;DHT22;35483;50.828;3.228;2023-05-10T00:35:22;14.80;99.90
49579;DHT22;35483;50.828;3.228;2023-05-10T00:37:48;14.80;99.90
49579;DHT22;35483;50.828;3.228;2023-05-10T00:40:15;14.80;99.90
49579;DHT22;35483;50.828;3.228;2023-05-10T00:42:41;14.80;99.90
49579;DHT22;35483;50.828;3.228;2023-05-10T00:45:07;14.80;99.90
49579;DHT22;35483;50.828;3.228;2023-05-10T00:47:35;14.80;99.90
49579;DHT22;35483;50.828;3.228;2023-05-10T00:50:02;14.80;99.90
49579;DHT22;35483;50.828;3.228;2023-05-10T00:52:29;14.80;99.90
49579;DHT22;35483;50.828;3.228;2023-05-10T00:54:56;14.70;99.90
49579;DHT22;35483;50.828;3.228;2023-05-10T00:57:22;14.70;99.90
49579;DHT22;35483;50.828;3.228;2023-05-10T00:59:48;14.60;99.90
49579;DHT22;35483;50.828;3.228;2023-05-10T01:02:14;14.60;99.90
49579;DHT22;35483;50.828;3.228;2023-05-10T01:04:40;14.60;99.90
49579;DHT22;35483;50.828;3.228;2023-05-10T01:07:07;14.60;99.90
49579;DHT22;35483;50.828;3.228;2023-05-10T01:09:33;14.60;99.90
49579;DHT22;35483;50.828;3.228;2023-05-10T01:11:59;14.60;99.90
49579;DHT22;35483;50.828;3.228;2023-05-10T01:14:27;14.60;99.90
49579;DHT22;35483;50.828;3.228;2023-05-10T01:16:53;14.60;99.90
49579;DHT22;35483;50.828;3.228;2023-05-10T01:19:23;14.60;99.90
49579;DHT22;35483;50.828;3.228;2023-05-10T01:32:41;14.70;99.90
49579;DHT22;35483;50.828;3.228;2023-05-10T01:35:31;14.70;99.90
49579;DHT22;35483;50.828;3.228;2023-05-10T01:38:17;14.70;99.90
49579;DHT22;35483;50.828;3.228;2023-05-10T01:43:28;14.70;99.90
49579;DHT22;35483;50.828;3.228;2023-05-10T01:46:02;14.70;99.90
49579;DHT22;35483;50.828;3.228;2023-05-10T01:48:40;14.70;99.90
49579;DHT22;35483;50.828;3.228;2023-05-10T01:51:12;14.60;99.90
49579;DHT22;35483;50.828;3.228;2023-05-10T01:53:40;14.60;99.90
49579;DHT22;35483;50.828;3.228;2023-05-10T01:56:07;14.60;99.90
49579;DHT22;35483;50.828;3.228;2023-05-10T01:58:36;14.60;99.90
49579;DHT22;35483;50.828;3.228;2023-05-10T02:01:04;14.60;99.90
49579;DHT22;35483;50.828;3.228;2023-05-10T02:03:32;14.60;99.90
49579;DHT22;35483;50.828;3.228;2023-05-10T02:05:59;14.60;99.90
49579;DHT22;35483;50.828;3.228;2023-05-10T02:08:26;14.60;99.90
49579;DHT22;35483;50.828;3.228;2023-05-10T02:10:54;14.60;99.90
49579;DHT22;35483;50.828;3.228;2023-05-10T02:13:21;14.60;99.90
49579;DHT22;35483;50.828;3.228;2023-05-10T02:15:48;14.60;99.90
49579;DHT22;35483;50.828;3.228;2023-05-10T02:18:16;14.60;99.90
49579;DHT22;35483;50.828;3.228;2023-05-10T02:20:44;14.60;99.90
49579;DHT22;35483;50.828;3.228;2023-05-10T02:23:11;14.50;99.90
49579;DHT22;35483;50.828;3.228;2023-05-10T02:25:37;14.50;99.90
49579;DHT22;35483;50.828;3.228;2023-05-10T02:28:05;14.50;99.90
49579;DHT22;35483;50.828;3.228;2023-05-10T02:30:33;14.50;99.90
49579;DHT22;35483;50.828;3.228;2023-05-10T02:33:00;14.50;99.90
49579;DHT22;35483;50.828;3.228;2023-05-10T02:35:27;14.50;99.90
49579;DHT22;35483;50.828;3.228;2023-05-10T02:37:54;14.50;99.90
49579;DHT22;35483;50.828;3.228;2023-05-10T02:40:22;14.40;99.90
49579;DHT22;35483;50.828;3.228;2023-05-10T02:42:50;14.40;99.90
49579;DHT22;35483;50.828;3.228;2023-05-10T02:45:21;14.40;99.90
49579;DHT22;35483;50.828;3.228;2023-05-10T02:47:47;14.30;99.90
49579;DHT22;35483;50.828;3.228;2023-05-10T02:50:13;14.30;99.90
49579;DHT22;35483;50.828;3.228;2023-05-10T02:52:44;14.30;99.90
49579;DHT22;35483;50.828;3.228;2023-05-10T02:55:14;14.30;99.90
49579;DHT22;35483;50.828;3.228;2023-05-10T02:57:56;14.30;99.90
49579;DHT22;35483;50.828;3.228;2023-05-10T03:00:23;14.20;99.90
49579;DHT22;35483;50.828;3.228;2023-05-10T03:02:49;14.20;99.90
49579;DHT22;35483;50.828;3.228;2023-05-10T03:05:15;14.20;99.90
49579;DHT22;35483;50.828;3.228;2023-05-10T03:07:41;14.20;99.90
49579;DHT22;35483;50.828;3.228;2023-05-10T03:10:07;14.10;99.90
49579;DHT22;35483;50.828;3.228;2023-05-10T03:15:51;14.10;99.90
49579;DHT22;35483;50.828;3.228;2023-05-10T03:18:29;14.10;99.90
49579;DHT22;35483;50.828;3.228;2023-05-10T03:21:02;14.10;99.90
49579;DHT22;35483;50.828;3.228;2023-05-10T03:23:44;14.10;99.90
49579;DHT22;35483;50.828;3.228;2023-05-10T03:26:15;14.00;99.90
49579;DHT22;35483;50.828;3.228;2023-05-10T03:28:43;14.00;99.90
49579;DHT22;35483;50.828;3.228;2023-05-10T03:31:09;14.00;99.90
49579;DHT22;35483;50.828;3.228;2023-05-10T03:33:35;14.00;99.90
49579;DHT22;35483;50.828;3.228;2023-05-10T03:36:01;14.00;99.90
49579;DHT22;35483;50.828;3.228;2023-05-10T03:38:27;14.00;99.90
49579;DHT22;35483;50.828;3.228;2023-05-10T03:40:53;14.00;99.90
49579;DHT22;35483;50.828;3.228;2023-05-10T03:43:18;14.00;99.90
49579;DHT22;35483;50.828;3.228;2023-05-10T03:45:44;14.00;99.90
49579;DHT22;35483;50.828;3.228;2023-05-10T03:48:10;14.00;99.90
49579;DHT22;35483;50.828;3.228;2023-05-10T03:50:36;14.00;99.90
49579;DHT22;35483;50.828;3.228;2023-05-10T03:53:03;14.00;99.90
49579;DHT22;35483;50.828;3.228;2023-05-10T03:55:29;14.10;99.90
49579;DHT22;35483;50.828;3.228;2023-05-10T03:57:55;14.10;99.90
49579;DHT22;35483;50.828;3.228;2023-05-10T04:00:23;14.00;99.90
49579;DHT22;35483;50.828;3.228;2023-05-10T04:02:49;14.10;99.90
49579;DHT22;35483;50.828;3.228;2023-05-10T04:05:14;14.00;99.90
49579;DHT22;35483;50.828;3.228;2023-05-10T04:07:40;14.00;99.90
49579;DHT22;35483;50.828;3.228;2023-05-10T04:10:06;14.10;99.90
49579;DHT22;35483;50.828;3.228;2023-05-10T04:12:32;14.10;99.90
49579;DHT22;35483;50.828;3.228;2023-05-10T04:14:58;14.10;99.90
49579;DHT22;35483;50.828;3.228;2023-05-10T04:17:24;14.10;99.90
49579;DHT22;35483;50.828;3.228;2023-05-10T04:19:49;14.10;99.90
49579;DHT22;35483;50.828;3.228;2023-05-10T04:22:18;14.10;99.90
49579;DHT22;35483;50.828;3.228;2023-05-10T04:24:45;14.10;99.90
49579;DHT22;35483;50.828;3.228;2023-05-10T04:27:10;14.10;99.90
49579;DHT22;35483;50.828;3.228;2023-05-10T04:29:37;14.10;99.90
49579;DHT22;35483;50.828;3.228;2023-05-10T04:32:04;14.20;99.90
49579;DHT22;35483;50.828;3.228;2023-05-10T04:34:30;14.20;99.90
49579;DHT22;35483;50.828;3.228;2023-05-10T04:36:56;14.20;99.90
49579;DHT22;35483;50.828;3.228;2023-05-10T04:39:21;14.10;99.90
49579;DHT22;35483;50.828;3.228;2023-05-10T04:41:47;14.20;99.90
49579;DHT22;35483;50.828;3.228;2023-05-10T04:44:14;14.20;99.90
49579;DHT22;35483;50.828;3.228;2023-05-10T04:46:43;14.20;99.90
49579;DHT22;35483;50.828;3.228;2023-05-10T04:49:09;14.30;99.90
49579;DHT22;35483;50.828;3.228;2023-05-10T04:51:36;14.30;99.90
49579;DHT22;35483;50.828;3.228;2023-05-10T04:54:02;14.30;99.90
49579;DHT22;35483;50.828;3.228;2023-05-10T04:56:28;14.30;99.90
49579;DHT22;35483;50.828;3.228;2023-05-10T04:58:54;14.30;99.90
49579;DHT22;35483;50.828;3.228;2023-05-10T05:01:20;14.30;99.90
49579;DHT22;35483;50.828;3.228;2023-05-10T05:03:45;14.30;99.90
49579;DHT22;35483;50.828;3.228;2023-05-10T05:06:11;14.30;99.90
49579;DHT22;35483;50.828;3.228;2023-05-10T05:08:37;14.30;99.90
49579;DHT22;35483;50.828;3.228;2023-05-10T05:11:02;14.30;99.90
49579;DHT22;35483;50.828;3.228;2023-05-10T05:13:28;14.30;99.90
49579;DHT22;35483;50.828;3.228;2023-05-10T05:15:54;14.30;99.90
49579;DHT22;35483;50.828;3.228;2023-05-10T05:18:21;14.40;99.90
49579;DHT22;35483;50.828;3.228;2023-05-10T05:20:46;14.40;99.90
49579;DHT22;35483;50.828;3.228;2023-05-10T05:23:13;14.40;99.90
49579;DHT22;35483;50.828;3.228;2023-05-10T05:25:38;14.50;99.90
49579;DHT22;35483;50.828;3.228;2023-05-10T05:28:04;14.50;99.90
49579;DHT22;35483;50.828;3.228;2023-05-10T05:30:31;14.50;99.90
49579;DHT22;35483;50.828;3.228;2023-05-10T05:32:57;14.60;99.90
49579;DHT22;35483;50.828;3.228;2023-05-10T05:35:22;14.60;99.90
49579;DHT22;35483;50.828;3.228;2023-05-10T05:37:48;14.60;99.90
49579;DHT22;35483;50.828;3.228;2023-05-10T05:40:14;14.70;99.90
49579;DHT22;35483;50.828;3.228;2023-05-10T05:42:39;14.70;99.90
49579;DHT22;35483;50.828;3.228;2023-05-10T05:45:06;14.70;99.90
49579;DHT22;35483;50.828;3.228;2023-05-10T05:47:31;14.60;99.90
49579;DHT22;35483;50.828;3.228;2023-05-10T05:49:57;14.60;99.90
49579;DHT22;35483;50.828;3.228;2023-05-10T05:52:23;14.60;99.90
49579;DHT22;35483;50.828;3.228;2023-05-10T05:54:49;14.60;99.90
49579;DHT22;35483;50.828;3.228;2023-05-10T05:57:14;14.60;99.90
49579;DHT22;35483;50.828;3.228;2023-05-10T05:59:40;14.60;99.90
49579;DHT22;35483;50.828;3.228;2023-05-10T06:02:09;14.60;99.90
49579;DHT22;35483;50.828;3.228;2023-05-10T06:04:36;14.60;99.90
49579;DHT22;35483;50.828;3.228;2023-05-10T06:07:02;14.60;99.90
49579;DHT22;35483;50.828;3.228;2023-05-10T06:09:28;14.60;99.90
49579;DHT22;35483;50.828;3.228;2023-05-10T06:11:54;14.60;99.90
49579;DHT22;35483;50.828;3.228;2023-05-10T06:14:24;14.60;99.90
49579;DHT22;35483;50.828;3.228;2023-05-10T06:16:49;14.60;99.90
49579;DHT22;35483;50.828;3.228;2023-05-10T06:19:15;14.60;99.90
49579;DHT22;35483;50.828;3.228;2023-05-10T06:21:41;14.70;99.90
49579;DHT22;35483;50.828;3.228;2023-05-10T06:24:07;14.70;99.90
49579;DHT22;35483;50.828;3.228;2023-05-10T06:26:33;14.70;99.90
49579;DHT22;35483;50.828;3.228;2023-05-10T06:28:59;14.80;99.90
49579;DHT22;35483;50.828;3.228;2023-05-10T06:31:25;14.80;99.90
49579;DHT22;35483;50.828;3.228;2023-05-10T06:33:52;14.70;99.90
49579;DHT22;35483;50.828;3.228;2023-05-10T06:36:19;14.90;99.90
49579;DHT22;35483;50.828;3.228;2023-05-10T06:38:45;14.90;99.90
49579;DHT22;35483;50.828;3.228;2023-05-10T06:41:11;15.00;99.90
49579;DHT22;35483;50.828;3.228;2023-05-10T06:43:37;15.00;99.90
49579;DHT22;35483;50.828;3.228;2023-05-10T06:46:07;15.10;99.90
49579;DHT22;35483;50.828;3.228;2023-05-10T06:48:33;15.20;99.90
49579;DHT22;35483;50.828;3.228;2023-05-10T06:50:59;15.30;99.90
49579;DHT22;35483;50.828;3.228;2023-05-10T06:53:25;15.40;99.90
49579;DHT22;35483;50.828;3.228;2023-05-10T06:55:50;15.50;99.90
49579;DHT22;35483;50.828;3.228;2023-05-10T06:58:16;15.60;99.90
49579;DHT22;35483;50.828;3.228;2023-05-10T07:00:42;15.70;99.90
49579;DHT22;35483;50.828;3.228;2023-05-10T07:03:09;15.80;99.90
49579;DHT22;35483;50.828;3.228;2023-05-10T07:05:36;15.80;99.90
49579;DHT22;35483;50.828;3.228;2023-05-10T07:08:03;15.90;99.90
49579;DHT22;35483;50.828;3.228;2023-05-10T07:10:29;16.00;99.90
49579;DHT22;35483;50.828;3.228;2023-05-10T07:12:55;16.00;99.90
49579;DHT22;35483;50.828;3.228;2023-05-10T07:15:21;16.00;99.90
49579;DHT22;35483;50.828;3.228;2023-05-10T07:17:47;16.00;99.90
49579;DHT22;35483;50.828;3.228;2023-05-10T07:20:13;16.00;99.90
49579;DHT22;35483;50.828;3.228;2023-05-10T07:22:38;16.00;99.90
49579;DHT22;35483;50.828;3.228;2023-05-10T07:25:04;16.10;99.90
49579;DHT22;35483;50.828;3.228;2023-05-10T07:27:30;16.20;99.90
49579;DHT22;35483;50.828;3.228;2023-05-10T07:29:56;16.20;99.90
49579;DHT22;35483;50.828;3.228;2023-05-10T07:32:23;16.20;99.90
49579;DHT22;35483;50.828;3.228;2023-05-10T07:34:49;16.20;99.90
49579;DHT22;35483;50.828;3.228;2023-05-10T07:37:15;16.10;99.90
49579;DHT22;35483;50.828;3.228;2023-05-10T07:39:41;16.20;99.90
49579;DHT22;35483;50.828;3.228;2023-05-10T07:42:06;16.20;99.90
49579;DHT22;35483;50.828;3.228;2023-05-10T07:44:32;16.10;99.90
49579;DHT22;35483;50.828;3.228;2023-05-10T07:46:58;16.10;99.90
49579;DHT22;35483;50.828;3.228;2023-05-10T07:49:26;16.00;99.90
49579;DHT22;35483;50.828;3.228;2023-05-10T07:51:51;15.90;99.90
49579;DHT22;35483;50.828;3.228;2023-05-10T07:54:17;15.80;99.90
49579;DHT22;35483;50.828;3.228;2023-05-10T07:56:43;15.70;99.90
49579;DHT22;35483;50.828;3.228;2023-05-10T07:59:18;15.70;99.90
49579;DHT22;35483;50.828;3.228;2023-05-10T08:01:44;15.70;99.90
49579;DHT22;35483;50.828;3.228;2023-05-10T08:04:10;15.60;99.90
49579;DHT22;35483;50.828;3.228;2023-05-10T08:06:36;15.60;99.90
49579;DHT22;35483;50.828;3.228;2023-05-10T08:09:02;15.60;99.90
49579;DHT22;35483;50.828;3.228;2023-05-10T08:11:28;15.60;99.90
49579;DHT22;35483;50.828;3.228;2023-05-10T08:13:54;15.60;99.90
49579;DHT22;35483;50.828;3.228;2023-05-10T08:16:20;15.70;99.90
49579;DHT22;35483;50.828;3.228;2023-05-10T08:18:46;15.70;99.90
49579;DHT22;35483;50.828;3.228;2023-05-10T08:21:13;15.60;99.90
49579;DHT22;35483;50.828;3.228;2023-05-10T08:23:39;15.60;99.90
49579;DHT22;35483;50.828;3.228;2023-05-10T08:26:07;15.60;99.90
49579;DHT22;35483;50.828;3.228;2023-05-10T08:28:32;15.60;99.90
49579;DHT22;35483;50.828;3.228;2023-05-10T08:30:59;15.60;99.90
49579;DHT22;35483;50.828;3.228;2023-05-10T08:33:25;15.70;99.90
49579;DHT22;35483;50.828;3.228;2023-05-10T08:35:51;15.80;99.90
49579;DHT22;35483;50.828;3.228;2023-05-10T08:38:18;15.90;99.90
49579;DHT22;35483;50.828;3.228;2023-05-10T08:40:44;16.00;99.90
49579;DHT22;35483;50.828;3.228;2023-05-10T08:43:12;16.20;99.90
49579;DHT22;35483;50.828;3.228;2023-05-10T08:45:45;16.40;99.90
49579;DHT22;35483;50.828;3.228;2023-05-10T08:48:12;16.60;99.90
49579;DHT22;35483;50.828;3.228;2023-05-10T08:50:40;16.70;99.90
49579;DHT22;35483;50.828;3.228;2023-05-10T08:53:11;16.70;99.90
49579;DHT22;35483;50.828;3.228;2023-05-10T08:55:38;16.90;99.90
49579;DHT22;35483;50.828;3.228;2023-05-10T08:58:06;17.00;99.70
49579;DHT22;35483;50.828;3.228;2023-05-10T09:00:33;17.10;99.60
49579;DHT22;35483;50.828;3.228;2023-05-10T09:03:00;17.00;99.70
49579;DHT22;35483;50.828;3.228;2023-05-10T09:05:26;17.00;99.70
49579;DHT22;35483;50.828;3.228;2023-05-10T09:07:52;16.80;99.70
49579;DHT22;35483;50.828;3.228;2023-05-10T09:10:19;16.70;99.90
49579;DHT22;35483;50.828;3.228;2023-05-10T09:12:45;16.50;99.80
49579;DHT22;35483;50.828;3.228;2023-05-10T09:15:15;16.30;99.90
49579;DHT22;35483;50.828;3.228;2023-05-10T09:17:42;16.20;99.90
49579;DHT22;35483;50.828;3.228;2023-05-10T09:20:09;16.10;99.90
49579;DHT22;35483;50.828;3.228;2023-05-10T09:22:35;16.10;99.90
49579;DHT22;35483;50.828;3.228;2023-05-10T09:27:34;16.10;99.90
49579;DHT22;35483;50.828;3.228;2023-05-10T09:30:00;16.10;99.90
49579;DHT22;35483;50.828;3.228;2023-05-10T09:32:44;16.20;99.90
49579;DHT22;35483;50.828;3.228;2023-05-10T09:35:14;16.30;99.90
49579;DHT22;35483;50.828;3.228;2023-05-10T09:37:44;16.40;99.90
49579;DHT22;35483;50.828;3.228;2023-05-10T09:42:52;16.50;99.90
49579;DHT22;35483;50.828;3.228;2023-05-10T09:45:18;16.50;99.90
49579;DHT22;35483;50.828;3.228;2023-05-10T09:47:45;16.60;99.90
49579;DHT22;35483;50.828;3.228;2023-05-10T09:50:11;16.60;99.90
49579;DHT22;35483;50.828;3.228;2023-05-10T09:53:03;16.60;99.90
49579;DHT22;35483;50.828;3.228;2023-05-10T09:58:05;16.60;99.90
49579;DHT22;35483;50.828;3.228;2023-05-10T10:00:40;16.60;99.90
49579;DHT22;35483;50.828;3.228;2023-05-10T10:03:07;16.50;99.90
49579;DHT22;35483;50.828;3.228;2023-05-10T10:05:40;16.40;99.90
49579;DHT22;35483;50.828;3.228;2023-05-10T10:08:09;16.40;99.90
49579;DHT22;35483;50.828;3.228;2023-05-10T10:10:35;16.30;99.90
49579;DHT22;35483;50.828;3.228;2023-05-10T10:13:02;16.30;99.90
49579;DHT22;35483;50.828;3.228;2023-05-10T10:15:29;16.30;99.90
49579;DHT22;35483;50.828;3.228;2023-05-10T10:17:55;16.20;99.90
49579;DHT22;35483;50.828;3.228;2023-05-10T10:20:22;16.20;99.90
49579;DHT22;35483;50.828;3.228;2023-05-10T10:22:49;16.30;99.90
49579;DHT22;35483;50.828;3.228;2023-05-10T10:25:16;16.30;99.90
49579;DHT22;35483;50.828;3.228;2023-05-10T10:33:13;16.80;99.90
49579;DHT22;35483;50.828;3.228;2023-05-10T10:35:45;17.00;99.90
49579;DHT22;35483;50.828;3.228;2023-05-10T10:38:12;17.30;99.90
49579;DHT22;35483;50.828;3.228;2023-05-10T10:40:38;17.50;99.80
49579;DHT22;35483;50.828;3.228;2023-05-10T10:43:27;17.60;99.90
49579;DHT22;35483;50.828;3.228;2023-05-10T10:46:09;17.70;99.60
49579;DHT22;35483;50.828;3.228;2023-05-10T10:48:35;17.80;99.50
49579;DHT22;35483;50.828;3.228;2023-05-10T10:51:02;17.90;99.50
49579;DHT22;35483;50.828;3.228;2023-05-10T10:53:28;18.10;99.40
49579;DHT22;35483;50.828;3.228;2023-05-10T10:56:09;18.10;99.30
49579;DHT22;35483;50.828;3.228;2023-05-10T10:58:37;18.20;99.10
49579;DHT22;35483;50.828;3.228;2023-05-10T11:01:19;18.10;99.30
49579;DHT22;35483;50.828;3.228;2023-05-10T11:06:30;18.20;99.00
49579;DHT22;35483;50.828;3.228;2023-05-10T11:08:57;18.20;99.20
49579;DHT22;35483;50.828;3.228;2023-05-10T11:11:23;18.20;99.20
49579;DHT22;35483;50.828;3.228;2023-05-10T11:13:49;18.30;99.30
49579;DHT22;35483;50.828;3.228;2023-05-10T11:16:23;18.30;99.10
49579;DHT22;35483;50.828;3.228;2023-05-10T11:19:04;18.50;98.90
49579;DHT22;35483;50.828;3.228;2023-05-10T11:21:31;18.60;98.70
49579;DHT22;35483;50.828;3.228;2023-05-10T11:23:59;18.80;98.90
49579;DHT22;35483;50.828;3.228;2023-05-10T11:26:31;19.00;98.90
49579;DHT22;35483;50.828;3.228;2023-05-10T11:28:57;19.10;98.50
49579;DHT22;35483;50.828;3.228;2023-05-10T11:31:24;19.20;98.60
49579;DHT22;35483;50.828;3.228;2023-05-10T11:33:54;19.40;98.40
49579;DHT22;35483;50.828;3.228;2023-05-10T11:36:32;19.60;98.20
49579;DHT22;35483;50.828;3.228;2023-05-10T11:38:58;19.70;97.80
49579;DHT22;35483;50.828;3.228;2023-05-10T11:41:25;19.70;98.20
49579;DHT22;35483;50.828;3.228;2023-05-10T11:43:54;19.70;98.20
49579;DHT22;35483;50.828;3.228;2023-05-10T11:46:21;19.80;98.20
49579;DHT22;35483;50.828;3.228;2023-05-10T11:48:49;19.80;98.20
49579;DHT22;35483;50.828;3.228;2023-05-10T11:51:20;19.90;98.20
49579;DHT22;35483;50.828;3.228;2023-05-10T11:53:48;19.80;97.90
49579;DHT22;35483;50.828;3.228;2023-05-10T11:56:16;19.60;97.90
49579;DHT22;35483;50.828;3.228;2023-05-10T11:58:42;19.60;98.20
49579;DHT22;35483;50.828;3.228;2023-05-10T12:01:08;19.60;98.10
49579;DHT22;35483;50.828;3.228;2023-05-10T12:03:36;19.60;98.20
49579;DHT22;35483;50.828;3.228;2023-05-10T12:06:03;19.60;98.00
49579;DHT22;35483;50.828;3.228;2023-05-10T12:08:30;19.50;97.60
49579;DHT22;35483;50.828;3.228;2023-05-10T12:11:07;19.40;97.30
49579;DHT22;35483;50.828;3.228;2023-05-10T12:13:38;19.30;95.70
49579;DHT22;35483;50.828;3.228;2023-05-10T12:16:32;19.30;96.70
49579;DHT22;35483;50.828;3.228;2023-05-10T12:18:59;19.30;96.30
49579;DHT22;35483;50.828;3.228;2023-05-10T12:21:26;19.20;97.00
49579;DHT22;35483;50.828;3.228;2023-05-10T12:24:02;19.20;96.70
49579;DHT22;35483;50.828;3.228;2023-05-10T12:26:28;19.20;95.80
49579;DHT22;35483;50.828;3.228;2023-05-10T12:29:00;19.20;96.60
49579;DHT22;35483;50.828;3.228;2023-05-10T12:31:55;19.30;96.40
49579;DHT22;35483;50.828;3.228;2023-05-10T12:36:53;19.20;94.80
49579;DHT22;35483;50.828;3.228;2023-05-10T12:39:18;19.20;96.20
49579;DHT22;35483;50.828;3.228;2023-05-10T12:41:44;19.10;95.90
49579;DHT22;35483;50.828;3.228;2023-05-10T12:44:10;19.10;95.80
49579;DHT22;35483;50.828;3.228;2023-05-10T12:46:36;19.20;95.90
49579;DHT22;35483;50.828;3.228;2023-05-10T12:49:02;19.20;95.80
49579;DHT22;35483;50.828;3.228;2023-05-10T12:51:27;19.20;95.60
49579;DHT22;35483;50.828;3.228;2023-05-10T12:53:54;19.20;95.70
49579;DHT22;35483;50.828;3.228;2023-05-10T12:56:20;19.30;95.70
49579;DHT22;35483;50.828;3.228;2023-05-10T12:58:46;19.30;95.20
49579;DHT22;35483;50.828;3.228;2023-05-10T13:01:15;19.40;95.40
49579;DHT22;35483;50.828;3.228;2023-05-10T13:03:40;19.40;95.30
49579;DHT22;35483;50.828;3.228;2023-05-10T13:06:06;19.40;95.20
49579;DHT22;35483;50.828;3.228;2023-05-10T13:08:33;19.40;95.20
49579;DHT22;35483;50.828;3.228;2023-05-10T13:11:02;19.40;94.70
49579;DHT22;35483;50.828;3.228;2023-05-10T13:13:29;19.30;94.50
49579;DHT22;35483;50.828;3.228;2023-05-10T13:15:55;19.50;94.50
49579;DHT22;35483;50.828;3.228;2023-05-10T13:18:25;19.50;95.00
49579;DHT22;35483;50.828;3.228;2023-05-10T13:20:51;19.50;94.80
49579;DHT22;35483;50.828;3.228;2023-05-10T13:23:17;19.60;94.80
49579;DHT22;35483;50.828;3.228;2023-05-10T13:25:43;19.60;94.80
49579;DHT22;35483;50.828;3.228;2023-05-10T13:28:09;19.60;94.50
49579;DHT22;35483;50.828;3.228;2023-05-10T13:30:35;19.50;94.20
49579;DHT22;35483;50.828;3.228;2023-05-10T13:33:01;19.60;94.60
49579;DHT22;35483;50.828;3.228;2023-05-10T13:35:27;19.60;94.70
49579;DHT22;35483;50.828;3.228;2023-05-10T13:37:53;19.60;94.60
49579;DHT22;35483;50.828;3.228;2023-05-10T13:40:22;19.70;94.50
49579;DHT22;35483;50.828;3.228;2023-05-10T13:42:48;19.60;94.60
49579;DHT22;35483;50.828;3.228;2023-05-10T13:45:13;19.60;94.30
49579;DHT22;35483;50.828;3.228;2023-05-10T13:47:40;19.50;94.40
49579;DHT22;35483;50.828;3.228;2023-05-10T13:50:06;19.50;94.20
49579;DHT22;35483;50.828;3.228;2023-05-10T13:52:32;19.40;94.40
49579;DHT22;35483;50.828;3.228;2023-05-10T13:54:59;19.40;94.50
49579;DHT22;35483;50.828;3.228;2023-05-10T13:57:25;19.40;94.40
49579;DHT22;35483;50.828;3.228;2023-05-10T13:59:52;19.40;94.00
49579;DHT22;35483;50.828;3.228;2023-05-10T14:02:19;19.30;94.20
49579;DHT22;35483;50.828;3.228;2023-05-10T14:04:48;19.20;93.80
49579;DHT22;35483;50.828;3.228;2023-05-10T14:07:16;19.20;93.90
49579;DHT22;35483;50.828;3.228;2023-05-10T14:09:43;19.30;94.10
49579;DHT22;35483;50.828;3.228;2023-05-10T14:12:09;19.30;94.20
49579;DHT22;35483;50.828;3.228;2023-05-10T14:14:35;19.40;94.00
49579;DHT22;35483;50.828;3.228;2023-05-10T14:17:01;19.40;93.30
49579;DHT22;35483;50.828;3.228;2023-05-10T14:19:27;19.40;94.20
49579;DHT22;35483;50.828;3.228;2023-05-10T14:21:53;19.40;94.10
49579;DHT22;35483;50.828;3.228;2023-05-10T14:24:19;19.40;93.90
49579;DHT22;35483;50.828;3.228;2023-05-10T14:26:44;19.40;93.90
49579;DHT22;35483;50.828;3.228;2023-05-10T14:29:11;19.30;93.40
49579;DHT22;35483;50.828;3.228;2023-05-10T14:31:37;19.20;93.20
49579;DHT22;35483;50.828;3.228;2023-05-10T14:34:02;19.10;93.50
49579;DHT22;35483;50.828;3.228;2023-05-10T14:36:28;19.10;93.70
49579;DHT22;35483;50.828;3.228;2023-05-10T14:38:55;19.00;93.20
49579;DHT22;35483;50.828;3.228;2023-05-10T14:41:21;19.00;93.30
49579;DHT22;35483;50.828;3.228;2023-05-10T14:43:47;19.00;93.50
49579;DHT22;35483;50.828;3.228;2023-05-10T14:46:13;19.00;93.40
49579;DHT22;35483;50.828;3.228;2023-05-10T14:48:39;19.00;93.30
49579;DHT22;35483;50.828;3.228;2023-05-10T14:51:05;18.90;93.40
49579;DHT22;35483;50.828;3.228;2023-05-10T14:53:32;18.90;93.00
49579;DHT22;35483;50.828;3.228;2023-05-10T14:55:58;18.90;93.30
49579;DHT22;35483;50.828;3.228;2023-05-10T14:58:25;18.80;93.30
49579;DHT22;35483;50.828;3.228;2023-05-10T15:00:51;18.80;93.00
49579;DHT22;35483;50.828;3.228;2023-05-10T15:03:17;18.80;93.20
49579;DHT22;35483;50.828;3.228;2023-05-10T15:05:43;18.80;93.00
49579;DHT22;35483;50.828;3.228;2023-05-10T15:08:09;18.70;93.30
49579;DHT22;35483;50.828;3.228;2023-05-10T15:10:35;18.80;93.30
49579;DHT22;35483;50.828;3.228;2023-05-10T15:13:03;18.70;93.00
49579;DHT22;35483;50.828;3.228;2023-05-10T15:15:30;18.50;91.70
49579;DHT22;35483;50.828;3.228;2023-05-10T15:17:56;18.50;92.80
49579;DHT22;35483;50.828;3.228;2023-05-10T15:20:22;18.50;93.40
49579;DHT22;35483;50.828;3.228;2023-05-10T15:22:47;18.60;93.40
49579;DHT22;35483;50.828;3.228;2023-05-10T15:25:13;18.50;93.20
49579;DHT22;35483;50.828;3.228;2023-05-10T15:27:41;18.50;93.30
49579;DHT22;35483;50.828;3.228;2023-05-10T15:30:10;18.50;90.40
49579;DHT22;35483;50.828;3.228;2023-05-10T15:32:36;18.40;92.90
49579;DHT22;35483;50.828;3.228;2023-05-10T15:35:02;18.40;93.20
49579;DHT22;35483;50.828;3.228;2023-05-10T15:37:29;18.50;93.40
49579;DHT22;35483;50.828;3.228;2023-05-10T15:39:54;18.50;93.30
49579;DHT22;35483;50.828;3.228;2023-05-10T15:42:27;18.50;92.40
49579;DHT22;35483;50.828;3.228;2023-05-10T15:44:53;18.50;93.00
49579;DHT22;35483;50.828;3.228;2023-05-10T15:47:19;18.50;93.30
49579;DHT22;35483;50.828;3.228;2023-05-10T15:49:44;18.40;92.60
49579;DHT22;35483;50.828;3.228;2023-05-10T15:52:10;18.40;92.70
49579;DHT22;35483;50.828;3.228;2023-05-10T15:54:36;18.50;92.70
49579;DHT22;35483;50.828;3.228;2023-05-10T15:57:04;18.50;93.10
49579;DHT22;35483;50.828;3.228;2023-05-10T15:59:30;18.50;93.00
49579;DHT22;35483;50.828;3.228;2023-05-10T16:01:56;18.60;93.40
49579;DHT22;35483;50.828;3.228;2023-05-10T16:04:22;18.70;93.20
49579;DHT22;35483;50.828;3.228;2023-05-10T16:06:49;18.70;93.00